sensor_id;sensor_type;location;lat;lon;timestamp;P1;durP1;ratioP1;P2;durP2;ratioP2
7193;SDS011;3638;48.820;9.244;2023-04-15T00:01:57;7.87;;;5.70;;
7193;SDS011;3638;48.820;9.244;2023-04-15T00:04:24;6.30;;;5.27;;
7193;SDS011;3638;48.820;9.244;2023-04-15T00:06:52;7.23;;;6.03;;
7193;SDS011;3638;48.820;9.244;2023-04-15T00:09:19;7.23;;;5.60;;
7193;SDS011;3638;48.820;9.244;2023-04-15T00:11:49;7.60;;;5.47;;
7193;SDS011;3638;48.820;9.244;2023-04-15T00:14:16;11.80;;;5.50;;
7193;SDS011;3638;48.820;9.244;2023-04-15T00:16:45;8.00;;;5.37;;
7193;SDS011;3638;48.820;9.244;2023-04-15T00:19:14;8.43;;;5.60;;
7193;SDS011;3638;48.820;9.244;2023-04-15T00:21:40;8.30;;;5.47;;
7193;SDS011;3638;48.820;9.244;2023-04-15T00:24:10;7.90;;;5.50;;
7193;SDS011;3638;48.820;9.244;2023-04-15T00:26:37;6.07;;;5.10;;
7193;SDS011;3638;48.820;9.244;2023-04-15T00:29:04;8.73;;;5.53;;
7193;SDS011;3638;48.820;9.244;2023-04-15T00:31:31;7.50;;;5.00;;
7193;SDS011;3638;48.820;9.244;2023-04-15T00:33:59;7.80;;;5.50;;
7193;SDS011;3638;48.820;9.244;2023-04-15T00:36:26;6.67;;;5.70;;
7193;SDS011;3638;48.820;9.244;2023-04-15T00:38:53;6.97;;;5.40;;
7193;SDS011;3638;48.820;9.244;2023-04-15T00:41:20;5.63;;;5.00;;
7193;SDS011;3638;48.820;9.244;2023-04-15T00:43:47;6.70;;;5.33;;
7193;SDS011;3638;48.820;9.244;2023-04-15T00:46:14;6.30;;;5.30;;
7193;SDS011;3638;48.820;9.244;2023-04-15T00:48:44;10.50;;;5.60;;
7193;SDS011;3638;48.820;9.244;2023-04-15T00:51:14;7.93;;;5.83;;
7193;SDS011;3638;48.820;9.244;2023-04-15T00:53:41;8.97;;;6.17;;
7193;SDS011;3638;48.820;9.244;2023-04-15T00:56:07;5.90;;;5.40;;
7193;SDS011;3638;48.820;9.244;2023-04-15T00:58:34;9.67;;;6.00;;
7193;SDS011;3638;48.820;9.244;2023-04-15T01:01:01;8.73;;;5.63;;
7193;SDS011;3638;48.820;9.244;2023-04-15T01:03:29;6.87;;;5.70;;
7193;SDS011;3638;48.820;9.244;2023-04-15T01:05:56;7.47;;;5.17;;
7193;SDS011;3638;48.820;9.244;2023-04-15T01:08:26;6.23;;;5.10;;
7193;SDS011;3638;48.820;9.244;2023-04-15T01:11:00;8.50;;;5.60;;
7193;SDS011;3638;48.820;9.244;2023-04-15T01:13:29;7.03;;;6.13;;
7193;SDS011;3638;48.820;9.244;2023-04-15T01:15:59;6.57;;;5.80;;
7193;SDS011;3638;48.820;9.244;2023-04-15T01:18:26;8.40;;;6.30;;
7193;SDS011;3638;48.820;9.244;2023-04-15T01:20:55;10.37;;;6.37;;
7193;SDS011;3638;48.820;9.244;2023-04-15T01:23:23;7.83;;;5.67;;
7193;SDS011;3638;48.820;9.244;2023-04-15T01:25:52;8.23;;;5.90;;
7193;SDS011;3638;48.820;9.244;2023-04-15T01:28:19;8.80;;;5.80;;
7193;SDS011;3638;48.820;9.244;2023-04-15T01:30:46;7.13;;;5.50;;
7193;SDS011;3638;48.820;9.244;2023-04-15T01:33:13;7.33;;;5.60;;
7193;SDS011;3638;48.820;9.244;2023-04-15T01:35:41;9.13;;;5.87;;
7193;SDS011;3638;48.820;9.244;2023-04-15T01:38:09;8.40;;;5.50;;
7193;SDS011;3638;48.820;9.244;2023-04-15T01:40:40;7.97;;;5.30;;
7193;SDS011;3638;48.820;9.244;2023-04-15T01:43:08;8.50;;;5.97;;
7193;SDS011;3638;48.820;9.244;2023-04-15T01:45:35;9.13;;;5.77;;
7193;SDS011;3638;48.820;9.244;2023-04-15T01:48:02;6.03;;;5.20;;
7193;SDS011;3638;48.820;9.244;2023-04-15T01:50:28;6.23;;;5.60;;
7193;SDS011;3638;48.820;9.244;2023-04-15T01:52:55;7.57;;;5.57;;
7193;SDS011;3638;48.820;9.244;2023-04-15T01:55:22;8.97;;;5.83;;
7193;SDS011;3638;48.820;9.244;2023-04-15T01:57:49;8.67;;;6.90;;
7193;SDS011;3638;48.820;9.244;2023-04-15T02:00:17;6.00;;;5.40;;
7193;SDS011;3638;48.820;9.244;2023-04-15T02:02:44;9.43;;;5.80;;
7193;SDS011;3638;48.820;9.244;2023-04-15T02:05:11;7.40;;;5.67;;
7193;SDS011;3638;48.820;9.244;2023-04-15T02:07:38;7.70;;;6.07;;
7193;SDS011;3638;48.820;9.244;2023-04-15T02:10:05;8.83;;;6.03;;
7193;SDS011;3638;48.820;9.244;2023-04-15T02:12:33;11.17;;;5.87;;
7193;SDS011;3638;48.820;9.244;2023-04-15T02:15:00;7.83;;;6.23;;
7193;SDS011;3638;48.820;9.244;2023-04-15T02:17:28;10.70;;;7.03;;
7193;SDS011;3638;48.820;9.244;2023-04-15T02:19:55;9.13;;;6.93;;
7193;SDS011;3638;48.820;9.244;2023-04-15T02:22:22;8.73;;;7.27;;
7193;SDS011;3638;48.820;9.244;2023-04-15T02:24:49;11.60;;;7.77;;
7193;SDS011;3638;48.820;9.244;2023-04-15T02:27:16;8.23;;;7.30;;
7193;SDS011;3638;48.820;9.244;2023-04-15T02:29:43;9.40;;;6.90;;
7193;SDS011;3638;48.820;9.244;2023-04-15T02:32:10;10.60;;;7.07;;
7193;SDS011;3638;48.820;9.244;2023-04-15T02:34:39;11.93;;;7.47;;
7193;SDS011;3638;48.820;9.244;2023-04-15T02:37:07;9.07;;;7.00;;
7193;SDS011;3638;48.820;9.244;2023-04-15T02:39:34;10.37;;;7.00;;
7193;SDS011;3638;48.820;9.244;2023-04-15T02:42:01;8.63;;;6.57;;
7193;SDS011;3638;48.820;9.244;2023-04-15T02:44:29;9.60;;;6.70;;
7193;SDS011;3638;48.820;9.244;2023-04-15T02:46:56;10.40;;;7.03;;
7193;SDS011;3638;48.820;9.244;2023-04-15T02:49:23;8.70;;;6.83;;
7193;SDS011;3638;48.820;9.244;2023-04-15T02:51:55;9.93;;;6.60;;
7193;SDS011;3638;48.820;9.244;2023-04-15T02:54:22;11.00;;;7.23;;
7193;SDS011;3638;48.820;9.244;2023-04-15T02:56:52;7.87;;;6.80;;
7193;SDS011;3638;48.820;9.244;2023-04-15T02:59:20;7.97;;;6.87;;
7193;SDS011;3638;48.820;9.244;2023-04-15T03:01:47;11.00;;;6.80;;
7193;SDS011;3638;48.820;9.244;2023-04-15T03:04:14;8.03;;;6.40;;
7193;SDS011;3638;48.820;9.244;2023-04-15T03:06:40;10.30;;;7.23;;
7193;SDS011;3638;48.820;9.244;2023-04-15T03:09:09;7.63;;;6.43;;
7193;SDS011;3638;48.820;9.244;2023-04-15T03:11:36;8.47;;;6.17;;
7193;SDS011;3638;48.820;9.244;2023-04-15T03:14:05;7.33;;;6.10;;
7193;SDS011;3638;48.820;9.244;2023-04-15T03:16:32;10.20;;;6.53;;
7193;SDS011;3638;48.820;9.244;2023-04-15T03:18:59;9.63;;;7.00;;
7193;SDS011;3638;48.820;9.244;2023-04-15T03:21:25;9.50;;;6.70;;
7193;SDS011;3638;48.820;9.244;2023-04-15T03:23:52;9.93;;;6.50;;
7193;SDS011;3638;48.820;9.244;2023-04-15T03:26:24;7.97;;;6.03;;
7193;SDS011;3638;48.820;9.244;2023-04-15T03:28:53;7.87;;;6.37;;
7193;SDS011;3638;48.820;9.244;2023-04-15T03:31:20;8.93;;;5.90;;
7193;SDS011;3638;48.820;9.244;2023-04-15T03:33:47;7.50;;;5.77;;
7193;SDS011;3638;48.820;9.244;2023-04-15T03:36:14;8.10;;;5.60;;
7193;SDS011;3638;48.820;9.244;2023-04-15T03:38:41;6.87;;;6.10;;
7193;SDS011;3638;48.820;9.244;2023-04-15T03:41:08;7.73;;;5.83;;
7193;SDS011;3638;48.820;9.244;2023-04-15T03:43:36;6.80;;;5.83;;
7193;SDS011;3638;48.820;9.244;2023-04-15T03:46:03;8.57;;;5.73;;
7193;SDS011;3638;48.820;9.244;2023-04-15T03:48:30;7.60;;;5.67;;
7193;SDS011;3638;48.820;9.244;2023-04-15T03:50:57;8.23;;;6.40;;
7193;SDS011;3638;48.820;9.244;2023-04-15T03:53:24;7.23;;;5.63;;
7193;SDS011;3638;48.820;9.244;2023-04-15T03:55:51;6.37;;;5.77;;
7193;SDS011;3638;48.820;9.244;2023-04-15T03:58:17;8.13;;;5.57;;
7193;SDS011;3638;48.820;9.244;2023-04-15T04:00:46;8.87;;;6.17;;
7193;SDS011;3638;48.820;9.244;2023-04-15T04:03:12;6.20;;;5.60;;
7193;SDS011;3638;48.820;9.244;2023-04-15T04:05:39;7.17;;;5.50;;
7193;SDS011;3638;48.820;9.244;2023-04-15T04:08:08;6.83;;;5.90;;
7193;SDS011;3638;48.820;9.244;2023-04-15T04:10:37;7.07;;;6.17;;
7193;SDS011;3638;48.820;9.244;2023-04-15T04:13:04;7.37;;;6.30;;
7193;SDS011;3638;48.820;9.244;2023-04-15T04:15:31;10.33;;;6.67;;
7193;SDS011;3638;48.820;9.244;2023-04-15T04:18:00;12.53;;;6.90;;
7193;SDS011;3638;48.820;9.244;2023-04-15T04:20:27;8.93;;;7.00;;
7193;SDS011;3638;48.820;9.244;2023-04-15T04:22:55;9.90;;;7.03;;
7193;SDS011;3638;48.820;9.244;2023-04-15T04:25:22;7.87;;;7.07;;
7193;SDS011;3638;48.820;9.244;2023-04-15T04:27:49;9.87;;;6.37;;
7193;SDS011;3638;48.820;9.244;2023-04-15T04:30:16;7.63;;;6.87;;
7193;SDS011;3638;48.820;9.244;2023-04-15T04:32:43;10.67;;;7.13;;
7193;SDS011;3638;48.820;9.244;2023-04-15T04:35:11;10.07;;;7.27;;
7193;SDS011;3638;48.820;9.244;2023-04-15T04:37:38;8.97;;;6.90;;
7193;SDS011;3638;48.820;9.244;2023-04-15T04:40:06;10.00;;;7.10;;
7193;SDS011;3638;48.820;9.244;2023-04-15T04:42:34;11.40;;;7.50;;
7193;SDS011;3638;48.820;9.244;2023-04-15T04:45:01;8.77;;;7.00;;
7193;SDS011;3638;48.820;9.244;2023-04-15T04:47:28;9.60;;;6.57;;
7193;SDS011;3638;48.820;9.244;2023-04-15T04:49:55;8.73;;;7.40;;
7193;SDS011;3638;48.820;9.244;2023-04-15T04:52:23;9.87;;;7.23;;
7193;SDS011;3638;48.820;9.244;2023-04-15T04:54:50;8.73;;;7.13;;
7193;SDS011;3638;48.820;9.244;2023-04-15T04:57:17;7.97;;;6.67;;
7193;SDS011;3638;48.820;9.244;2023-04-15T04:59:43;9.93;;;7.27;;
7193;SDS011;3638;48.820;9.244;2023-04-15T05:02:10;7.87;;;7.07;;
7193;SDS011;3638;48.820;9.244;2023-04-15T05:04:37;9.90;;;7.30;;
7193;SDS011;3638;48.820;9.244;2023-04-15T05:07:05;9.10;;;7.20;;
7193;SDS011;3638;48.820;9.244;2023-04-15T05:09:33;8.33;;;7.03;;
7193;SDS011;3638;48.820;9.244;2023-04-15T05:12:01;8.87;;;7.10;;
7193;SDS011;3638;48.820;9.244;2023-04-15T05:14:28;10.63;;;7.37;;
7193;SDS011;3638;48.820;9.244;2023-04-15T05:16:56;8.40;;;7.20;;
7193;SDS011;3638;48.820;9.244;2023-04-15T05:19:23;9.50;;;7.70;;
7193;SDS011;3638;48.820;9.244;2023-04-15T05:21:49;8.33;;;7.20;;
7193;SDS011;3638;48.820;9.244;2023-04-15T05:24:16;9.40;;;7.20;;
7193;SDS011;3638;48.820;9.244;2023-04-15T05:26:44;9.83;;;7.27;;
7193;SDS011;3638;48.820;9.244;2023-04-15T05:29:11;12.17;;;7.30;;
7193;SDS011;3638;48.820;9.244;2023-04-15T05:31:38;10.20;;;7.40;;
7193;SDS011;3638;48.820;9.244;2023-04-15T05:34:05;10.40;;;7.20;;
7193;SDS011;3638;48.820;9.244;2023-04-15T05:36:32;9.47;;;7.27;;
7193;SDS011;3638;48.820;9.244;2023-04-15T05:38:58;12.23;;;7.53;;
7193;SDS011;3638;48.820;9.244;2023-04-15T05:41:25;15.07;;;6.83;;
7193;SDS011;3638;48.820;9.244;2023-04-15T05:43:54;9.87;;;7.07;;
7193;SDS011;3638;48.820;9.244;2023-04-15T05:46:20;8.83;;;6.97;;
7193;SDS011;3638;48.820;9.244;2023-04-15T05:48:47;7.83;;;6.40;;
7193;SDS011;3638;48.820;9.244;2023-04-15T05:51:14;8.43;;;6.30;;
7193;SDS011;3638;48.820;9.244;2023-04-15T05:53:41;10.47;;;6.40;;
7193;SDS011;3638;48.820;9.244;2023-04-15T05:56:09;8.40;;;6.27;;
7193;SDS011;3638;48.820;9.244;2023-04-15T05:58:36;8.40;;;6.40;;
7193;SDS011;3638;48.820;9.244;2023-04-15T06:01:04;8.40;;;5.30;;
7193;SDS011;3638;48.820;9.244;2023-04-15T06:03:31;6.97;;;5.97;;
7193;SDS011;3638;48.820;9.244;2023-04-15T06:05:58;7.40;;;5.80;;
7193;SDS011;3638;48.820;9.244;2023-04-15T06:08:25;7.50;;;5.43;;
7193;SDS011;3638;48.820;9.244;2023-04-15T06:10:52;9.93;;;5.97;;
7193;SDS011;3638;48.820;9.244;2023-04-15T06:13:19;7.97;;;5.10;;
7193;SDS011;3638;48.820;9.244;2023-04-15T06:15:46;9.33;;;5.00;;
7193;SDS011;3638;48.820;9.244;2023-04-15T06:18:15;6.30;;;5.07;;
7193;SDS011;3638;48.820;9.244;2023-04-15T06:20:41;9.27;;;5.40;;
7193;SDS011;3638;48.820;9.244;2023-04-15T06:23:08;6.97;;;5.20;;
7193;SDS011;3638;48.820;9.244;2023-04-15T06:25:35;6.07;;;4.50;;
7193;SDS011;3638;48.820;9.244;2023-04-15T06:28:02;8.90;;;5.10;;
7193;SDS011;3638;48.820;9.244;2023-04-15T06:30:29;7.83;;;5.23;;
7193;SDS011;3638;48.820;9.244;2023-04-15T06:32:56;9.27;;;5.53;;
7193;SDS011;3638;48.820;9.244;2023-04-15T06:35:25;8.33;;;5.37;;
7193;SDS011;3638;48.820;9.244;2023-04-15T06:37:52;9.00;;;5.40;;
7193;SDS011;3638;48.820;9.244;2023-04-15T06:40:19;7.83;;;5.10;;
7193;SDS011;3638;48.820;9.244;2023-04-15T06:42:46;7.13;;;5.33;;
7193;SDS011;3638;48.820;9.244;2023-04-15T06:45:13;8.20;;;5.10;;
7193;SDS011;3638;48.820;9.244;2023-04-15T06:47:40;9.30;;;5.37;;
7193;SDS011;3638;48.820;9.244;2023-04-15T06:50:07;9.70;;;5.57;;
7193;SDS011;3638;48.820;9.244;2023-04-15T06:52:36;8.77;;;5.20;;
7193;SDS011;3638;48.820;9.244;2023-04-15T06:55:03;9.90;;;5.57;;
7193;SDS011;3638;48.820;9.244;2023-04-15T06:57:32;7.50;;;5.10;;
7193;SDS011;3638;48.820;9.244;2023-04-15T06:59:59;9.03;;;5.33;;
7193;SDS011;3638;48.820;9.244;2023-04-15T07:02:25;8.67;;;5.63;;
7193;SDS011;3638;48.820;9.244;2023-04-15T07:04:52;11.53;;;7.53;;
7193;SDS011;3638;48.820;9.244;2023-04-15T07:07:19;6.97;;;5.10;;
7193;SDS011;3638;48.820;9.244;2023-04-15T07:09:47;6.63;;;5.17;;
7193;SDS011;3638;48.820;9.244;2023-04-15T07:12:14;7.37;;;4.93;;
7193;SDS011;3638;48.820;9.244;2023-04-15T07:14:41;6.03;;;5.40;;
7193;SDS011;3638;48.820;9.244;2023-04-15T07:17:08;6.77;;;5.00;;
7193;SDS011;3638;48.820;9.244;2023-04-15T07:19:35;9.23;;;5.00;;
7193;SDS011;3638;48.820;9.244;2023-04-15T07:22:02;7.20;;;5.80;;
7193;SDS011;3638;48.820;9.244;2023-04-15T07:24:29;15.17;;;8.30;;
7193;SDS011;3638;48.820;9.244;2023-04-15T07:26:58;8.97;;;4.73;;
7193;SDS011;3638;48.820;9.244;2023-04-15T07:29:25;6.87;;;4.70;;
7193;SDS011;3638;48.820;9.244;2023-04-15T07:31:52;6.97;;;4.40;;
7193;SDS011;3638;48.820;9.244;2023-04-15T07:34:21;7.00;;;4.67;;
7193;SDS011;3638;48.820;9.244;2023-04-15T07:36:48;8.03;;;4.70;;
7193;SDS011;3638;48.820;9.244;2023-04-15T07:39:16;5.00;;;4.27;;
7193;SDS011;3638;48.820;9.244;2023-04-15T07:41:43;6.30;;;4.57;;
7193;SDS011;3638;48.820;9.244;2023-04-15T07:44:11;6.33;;;4.50;;
7193;SDS011;3638;48.820;9.244;2023-04-15T07:46:38;5.40;;;4.03;;
7193;SDS011;3638;48.820;9.244;2023-04-15T07:49:05;5.80;;;4.27;;
7193;SDS011;3638;48.820;9.244;2023-04-15T07:51:32;5.60;;;4.30;;
7193;SDS011;3638;48.820;9.244;2023-04-15T07:53:59;5.50;;;4.17;;
7193;SDS011;3638;48.820;9.244;2023-04-15T07:56:28;5.27;;;3.93;;
7193;SDS011;3638;48.820;9.244;2023-04-15T07:58:55;9.10;;;3.83;;
7193;SDS011;3638;48.820;9.244;2023-04-15T08:01:23;5.20;;;3.83;;
7193;SDS011;3638;48.820;9.244;2023-04-15T08:03:50;5.07;;;4.00;;
7193;SDS011;3638;48.820;9.244;2023-04-15T08:06:17;4.23;;;3.50;;
7193;SDS011;3638;48.820;9.244;2023-04-15T08:08:44;7.03;;;3.80;;
7193;SDS011;3638;48.820;9.244;2023-04-15T08:11:11;8.77;;;4.00;;
7193;SDS011;3638;48.820;9.244;2023-04-15T08:13:38;5.77;;;3.67;;
7193;SDS011;3638;48.820;9.244;2023-04-15T08:16:16;5.23;;;3.90;;
7193;SDS011;3638;48.820;9.244;2023-04-15T08:18:46;10.07;;;4.57;;
7193;SDS011;3638;48.820;9.244;2023-04-15T08:21:13;5.27;;;3.90;;
7193;SDS011;3638;48.820;9.244;2023-04-15T08:23:41;7.37;;;4.17;;
7193;SDS011;3638;48.820;9.244;2023-04-15T08:26:09;8.33;;;4.30;;
7193;SDS011;3638;48.820;9.244;2023-04-15T08:28:36;5.35;;;3.70;;
7193;SDS011;3638;48.820;9.244;2023-04-15T08:31:05;5.20;;;3.97;;
7193;SDS011;3638;48.820;9.244;2023-04-15T08:33:32;7.47;;;3.77;;
7193;SDS011;3638;48.820;9.244;2023-04-15T08:36:00;6.93;;;4.40;;
7193;SDS011;3638;48.820;9.244;2023-04-15T08:38:27;11.15;;;5.00;;
7193;SDS011;3638;48.820;9.244;2023-04-15T08:40:54;5.32;;;3.80;;
7193;SDS011;3638;48.820;9.244;2023-04-15T08:43:22;9.90;;;4.20;;
7193;SDS011;3638;48.820;9.244;2023-04-15T08:45:54;6.75;;;4.15;;
7193;SDS011;3638;48.820;9.244;2023-04-15T08:48:23;7.13;;;4.03;;
7193;SDS011;3638;48.820;9.244;2023-04-15T08:50:55;7.00;;;3.97;;
7193;SDS011;3638;48.820;9.244;2023-04-15T08:53:24;6.45;;;3.92;;
7193;SDS011;3638;48.820;9.244;2023-04-15T08:55:53;5.57;;;3.80;;
7193;SDS011;3638;48.820;9.244;2023-04-15T08:58:22;6.20;;;3.95;;
7193;SDS011;3638;48.820;9.244;2023-04-15T09:00:50;6.97;;;4.03;;
7193;SDS011;3638;48.820;9.244;2023-04-15T09:03:17;6.35;;;4.20;;
7193;SDS011;3638;48.820;9.244;2023-04-15T09:05:45;7.30;;;4.45;;
7193;SDS011;3638;48.820;9.244;2023-04-15T09:08:12;7.70;;;4.60;;
7193;SDS011;3638;48.820;9.244;2023-04-15T09:10:42;6.43;;;3.88;;
7193;SDS011;3638;48.820;9.244;2023-04-15T09:13:09;6.03;;;4.30;;
7193;SDS011;3638;48.820;9.244;2023-04-15T09:15:36;6.28;;;4.22;;
7193;SDS011;3638;48.820;9.244;2023-04-15T09:18:04;8.25;;;4.40;;
7193;SDS011;3638;48.820;9.244;2023-04-15T09:20:36;7.38;;;4.47;;
7193;SDS011;3638;48.820;9.244;2023-04-15T09:23:10;4.95;;;3.88;;
7193;SDS011;3638;48.820;9.244;2023-04-15T09:25:38;8.27;;;4.10;;
7193;SDS011;3638;48.820;9.244;2023-04-15T09:28:08;6.68;;;4.63;;
7193;SDS011;3638;48.820;9.244;2023-04-15T09:30:35;5.78;;;4.47;;
7193;SDS011;3638;48.820;9.244;2023-04-15T09:33:02;6.80;;;4.57;;
7193;SDS011;3638;48.820;9.244;2023-04-15T09:35:32;5.60;;;4.35;;
7193;SDS011;3638;48.820;9.244;2023-04-15T09:38:03;4.75;;;4.25;;
7193;SDS011;3638;48.820;9.244;2023-04-15T09:40:34;6.03;;;4.50;;
7193;SDS011;3638;48.820;9.244;2023-04-15T09:43:02;9.63;;;4.10;;
7193;SDS011;3638;48.820;9.244;2023-04-15T09:45:32;10.40;;;4.15;;
7193;SDS011;3638;48.820;9.244;2023-04-15T09:48:13;7.25;;;3.50;;
7193;SDS011;3638;48.820;9.244;2023-04-15T09:50:43;7.30;;;4.38;;
7193;SDS011;3638;48.820;9.244;2023-04-15T09:53:10;6.03;;;4.68;;
7193;SDS011;3638;48.820;9.244;2023-04-15T09:55:42;6.15;;;4.10;;
7193;SDS011;3638;48.820;9.244;2023-04-15T09:58:16;8.63;;;4.95;;
7193;SDS011;3638;48.820;9.244;2023-04-15T10:00:46;8.82;;;4.85;;
7193;SDS011;3638;48.820;9.244;2023-04-15T10:03:14;6.50;;;4.00;;
7193;SDS011;3638;48.820;9.244;2023-04-15T10:05:46;7.60;;;4.53;;
7193;SDS011;3638;48.820;9.244;2023-04-15T10:08:15;7.07;;;4.53;;
7193;SDS011;3638;48.820;9.244;2023-04-15T10:10:44;6.03;;;4.73;;
7193;SDS011;3638;48.820;9.244;2023-04-15T10:13:12;8.17;;;4.40;;
7193;SDS011;3638;48.820;9.244;2023-04-15T10:15:41;5.00;;;4.50;;
7193;SDS011;3638;48.820;9.244;2023-04-15T10:18:13;5.13;;;4.03;;
7193;SDS011;3638;48.820;9.244;2023-04-15T10:20:41;6.43;;;4.20;;
7193;SDS011;3638;48.820;9.244;2023-04-15T10:23:09;5.63;;;4.27;;
7193;SDS011;3638;48.820;9.244;2023-04-15T10:25:37;6.20;;;4.20;;
7193;SDS011;3638;48.820;9.244;2023-04-15T10:28:05;4.57;;;4.10;;
7193;SDS011;3638;48.820;9.244;2023-04-15T10:30:32;6.60;;;3.28;;
7193;SDS011;3638;48.820;9.244;2023-04-15T10:32:59;7.50;;;4.53;;
7193;SDS011;3638;48.820;9.244;2023-04-15T10:35:29;6.65;;;4.00;;
7193;SDS011;3638;48.820;9.244;2023-04-15T10:37:58;4.22;;;3.50;;
7193;SDS011;3638;48.820;9.244;2023-04-15T10:40:28;6.43;;;3.67;;
7193;SDS011;3638;48.820;9.244;2023-04-15T10:42:57;6.23;;;3.10;;
7193;SDS011;3638;48.820;9.244;2023-04-15T10:45:26;3.90;;;2.78;;
7193;SDS011;3638;48.820;9.244;2023-04-15T10:47:57;6.10;;;4.53;;
7193;SDS011;3638;48.820;9.244;2023-04-15T10:50:27;5.00;;;4.50;;
7193;SDS011;3638;48.820;9.244;2023-04-15T10:52:57;6.32;;;4.13;;
7193;SDS011;3638;48.820;9.244;2023-04-15T10:55:24;5.63;;;3.77;;
7193;SDS011;3638;48.820;9.244;2023-04-15T10:57:57;6.30;;;4.23;;
7193;SDS011;3638;48.820;9.244;2023-04-15T11:00:27;7.20;;;3.65;;
7193;SDS011;3638;48.820;9.244;2023-04-15T11:02:56;6.97;;;4.03;;
7193;SDS011;3638;48.820;9.244;2023-04-15T11:08:17;6.15;;;4.13;;
7193;SDS011;3638;48.820;9.244;2023-04-15T11:13:22;8.43;;;4.50;;
7193;SDS011;3638;48.820;9.244;2023-04-15T11:15:57;6.75;;;4.20;;
7193;SDS011;3638;48.820;9.244;2023-04-15T11:18:26;7.15;;;4.40;;
7193;SDS011;3638;48.820;9.244;2023-04-15T11:20:59;6.18;;;4.00;;
7193;SDS011;3638;48.820;9.244;2023-04-15T11:23:33;6.78;;;4.63;;
7193;SDS011;3638;48.820;9.244;2023-04-15T11:26:03;4.35;;;3.85;;
7193;SDS011;3638;48.820;9.244;2023-04-15T11:28:33;4.68;;;4.20;;
7193;SDS011;3638;48.820;9.244;2023-04-15T11:31:05;5.30;;;4.28;;
7193;SDS011;3638;48.820;9.244;2023-04-15T11:33:36;5.30;;;4.43;;
7193;SDS011;3638;48.820;9.244;2023-04-15T11:36:04;8.05;;;4.93;;
7193;SDS011;3638;48.820;9.244;2023-04-15T11:38:34;10.15;;;5.20;;
7193;SDS011;3638;48.820;9.244;2023-04-15T11:41:01;6.57;;;5.30;;
7193;SDS011;3638;48.820;9.244;2023-04-15T11:43:30;8.17;;;4.90;;
7193;SDS011;3638;48.820;9.244;2023-04-15T11:45:59;6.30;;;4.97;;
7193;SDS011;3638;48.820;9.244;2023-04-15T11:48:30;7.77;;;4.97;;
7193;SDS011;3638;48.820;9.244;2023-04-15T11:50:59;7.17;;;4.37;;
7193;SDS011;3638;48.820;9.244;2023-04-15T11:53:41;7.87;;;4.10;;
7193;SDS011;3638;48.820;9.244;2023-04-15T11:56:10;6.60;;;3.70;;
7193;SDS011;3638;48.820;9.244;2023-04-15T11:58:42;5.57;;;4.13;;
7193;SDS011;3638;48.820;9.244;2023-04-15T12:01:10;5.47;;;4.10;;
7193;SDS011;3638;48.820;9.244;2023-04-15T12:03:38;5.00;;;3.80;;
7193;SDS011;3638;48.820;9.244;2023-04-15T12:06:10;4.28;;;3.38;;
7193;SDS011;3638;48.820;9.244;2023-04-15T12:08:55;6.83;;;3.40;;
7193;SDS011;3638;48.820;9.244;2023-04-15T12:11:31;4.13;;;3.10;;
7193;SDS011;3638;48.820;9.244;2023-04-15T12:14:04;4.33;;;3.43;;
7193;SDS011;3638;48.820;9.244;2023-04-15T12:16:34;4.47;;;3.30;;
7193;SDS011;3638;48.820;9.244;2023-04-15T12:19:04;5.63;;;3.67;;
7193;SDS011;3638;48.820;9.244;2023-04-15T12:21:36;4.90;;;3.40;;
7193;SDS011;3638;48.820;9.244;2023-04-15T12:24:07;3.80;;;3.20;;
7193;SDS011;3638;48.820;9.244;2023-04-15T12:26:36;4.43;;;4.03;;
7193;SDS011;3638;48.820;9.244;2023-04-15T12:29:10;6.57;;;3.83;;
7193;SDS011;3638;48.820;9.244;2023-04-15T12:31:45;5.93;;;4.27;;
7193;SDS011;3638;48.820;9.244;2023-04-15T12:34:15;7.70;;;4.60;;
7193;SDS011;3638;48.820;9.244;2023-04-15T12:36:44;7.27;;;5.23;;
7193;SDS011;3638;48.820;9.244;2023-04-15T12:39:12;7.73;;;5.67;;
7193;SDS011;3638;48.820;9.244;2023-04-15T12:41:39;7.27;;;5.47;;
7193;SDS011;3638;48.820;9.244;2023-04-15T12:44:06;5.43;;;4.87;;
7193;SDS011;3638;48.820;9.244;2023-04-15T12:46:33;6.07;;;5.10;;
7193;SDS011;3638;48.820;9.244;2023-04-15T12:49:00;6.23;;;5.20;;
7193;SDS011;3638;48.820;9.244;2023-04-15T12:51:27;6.53;;;5.30;;
7193;SDS011;3638;48.820;9.244;2023-04-15T12:53:55;4.90;;;4.50;;
7193;SDS011;3638;48.820;9.244;2023-04-15T12:56:24;6.30;;;5.27;;
7193;SDS011;3638;48.820;9.244;2023-04-15T12:58:50;5.50;;;4.67;;
7193;SDS011;3638;48.820;9.244;2023-04-15T13:01:17;6.77;;;5.17;;
7193;SDS011;3638;48.820;9.244;2023-04-15T13:03:44;4.30;;;3.90;;
7193;SDS011;3638;48.820;9.244;2023-04-15T13:06:12;4.33;;;3.80;;
7193;SDS011;3638;48.820;9.244;2023-04-15T13:08:38;4.10;;;3.70;;
7193;SDS011;3638;48.820;9.244;2023-04-15T13:11:06;4.13;;;3.30;;
7193;SDS011;3638;48.820;9.244;2023-04-15T13:13:34;5.17;;;3.23;;
7193;SDS011;3638;48.820;9.244;2023-04-15T13:16:01;6.27;;;3.60;;
7193;SDS011;3638;48.820;9.244;2023-04-15T13:18:28;4.90;;;3.60;;
7193;SDS011;3638;48.820;9.244;2023-04-15T13:20:55;4.10;;;3.17;;
7193;SDS011;3638;48.820;9.244;2023-04-15T13:23:22;3.77;;;3.43;;
7193;SDS011;3638;48.820;9.244;2023-04-15T13:25:49;5.57;;;3.37;;
7193;SDS011;3638;48.820;9.244;2023-04-15T13:28:16;3.37;;;3.07;;
7193;SDS011;3638;48.820;9.244;2023-04-15T13:30:44;4.43;;;3.50;;
7193;SDS011;3638;48.820;9.244;2023-04-15T13:33:15;6.70;;;3.00;;
7193;SDS011;3638;48.820;9.244;2023-04-15T13:35:42;3.53;;;3.10;;
7193;SDS011;3638;48.820;9.244;2023-04-15T13:38:09;3.80;;;2.90;;
7193;SDS011;3638;48.820;9.244;2023-04-15T13:40:36;3.07;;;2.60;;
7193;SDS011;3638;48.820;9.244;2023-04-15T13:43:03;4.03;;;2.90;;
7193;SDS011;3638;48.820;9.244;2023-04-15T13:45:30;3.13;;;2.40;;
7193;SDS011;3638;48.820;9.244;2023-04-15T13:47:58;3.60;;;1.90;;
7193;SDS011;3638;48.820;9.244;2023-04-15T13:50:25;2.87;;;1.90;;
7193;SDS011;3638;48.820;9.244;2023-04-15T13:52:52;1.80;;;1.70;;
7193;SDS011;3638;48.820;9.244;2023-04-15T13:55:19;2.47;;;1.80;;
7193;SDS011;3638;48.820;9.244;2023-04-15T13:57:46;1.90;;;1.80;;
7193;SDS011;3638;48.820;9.244;2023-04-15T14:00:14;2.07;;;1.83;;
7193;SDS011;3638;48.820;9.244;2023-04-15T14:02:41;2.67;;;1.90;;
7193;SDS011;3638;48.820;9.244;2023-04-15T14:05:10;2.00;;;1.80;;
7193;SDS011;3638;48.820;9.244;2023-04-15T14:07:37;3.53;;;1.93;;
7193;SDS011;3638;48.820;9.244;2023-04-15T14:10:04;3.03;;;2.00;;
7193;SDS011;3638;48.820;9.244;2023-04-15T14:12:32;1.80;;;1.70;;
7193;SDS011;3638;48.820;9.244;2023-04-15T14:14:59;1.97;;;1.80;;
7193;SDS011;3638;48.820;9.244;2023-04-15T14:17:26;1.80;;;1.70;;
7193;SDS011;3638;48.820;9.244;2023-04-15T14:19:53;4.50;;;1.70;;
7193;SDS011;3638;48.820;9.244;2023-04-15T14:22:21;2.07;;;1.87;;
7193;SDS011;3638;48.820;9.244;2023-04-15T14:24:48;2.20;;;1.80;;
7193;SDS011;3638;48.820;9.244;2023-04-15T14:27:17;2.57;;;1.83;;
7193;SDS011;3638;48.820;9.244;2023-04-15T14:29:44;2.87;;;1.87;;
7193;SDS011;3638;48.820;9.244;2023-04-15T14:32:10;2.23;;;2.00;;
7193;SDS011;3638;48.820;9.244;2023-04-15T14:34:37;1.77;;;1.67;;
7193;SDS011;3638;48.820;9.244;2023-04-15T14:37:04;2.33;;;2.07;;
7193;SDS011;3638;48.820;9.244;2023-04-15T14:39:32;2.13;;;1.93;;
7193;SDS011;3638;48.820;9.244;2023-04-15T14:41:59;2.97;;;1.53;;
7193;SDS011;3638;48.820;9.244;2023-04-15T14:44:26;2.13;;;1.90;;
7193;SDS011;3638;48.820;9.244;2023-04-15T14:46:53;2.07;;;1.83;;
7193;SDS011;3638;48.820;9.244;2023-04-15T14:49:20;2.63;;;2.00;;
7193;SDS011;3638;48.820;9.244;2023-04-15T14:51:47;3.90;;;1.97;;
7193;SDS011;3638;48.820;9.244;2023-04-15T14:54:14;2.17;;;1.90;;
7193;SDS011;3638;48.820;9.244;2023-04-15T14:56:42;3.87;;;1.97;;
7193;SDS011;3638;48.820;9.244;2023-04-15T14:59:09;2.13;;;1.93;;
7193;SDS011;3638;48.820;9.244;2023-04-15T15:01:36;2.03;;;1.90;;
7193;SDS011;3638;48.820;9.244;2023-04-15T15:04:03;2.97;;;2.40;;
7193;SDS011;3638;48.820;9.244;2023-04-15T15:06:30;2.70;;;2.33;;
7193;SDS011;3638;48.820;9.244;2023-04-15T15:08:57;2.23;;;2.00;;
7193;SDS011;3638;48.820;9.244;2023-04-15T15:11:25;2.60;;;2.40;;
7193;SDS011;3638;48.820;9.244;2023-04-15T15:13:53;2.33;;;2.13;;
7193;SDS011;3638;48.820;9.244;2023-04-15T15:16:21;3.30;;;2.60;;
7193;SDS011;3638;48.820;9.244;2023-04-15T15:18:48;2.83;;;2.60;;
7193;SDS011;3638;48.820;9.244;2023-04-15T15:21:16;2.90;;;2.60;;
7193;SDS011;3638;48.820;9.244;2023-04-15T15:23:43;2.17;;;2.00;;
7193;SDS011;3638;48.820;9.244;2023-04-15T15:26:12;3.80;;;2.40;;